createdAt,value
2022-10-21T00:04:34.711Z,12.48
2022-10-21T00:09:38.399Z,13.13
2022-10-21T00:14:42.008Z,12.20
2022-10-21T00:19:47.032Z,12.80
2022-10-21T00:24:50.656Z,11.65
2022-10-21T00:29:54.354Z,12.75
2022-10-21T00:34:59.387Z,11.10
2022-10-21T00:40:03.149Z,12.23
2022-10-21T00:45:19.723Z,12.07
2022-10-21T00:50:31.786Z,12.10
2022-10-21T00:55:40.226Z,11.68
2022-10-21T01:00:43.978Z,11.50
2022-10-21T01:10:54.585Z,11.25
2022-10-21T01:16:07.839Z,10.95
2022-10-21T01:21:24.569Z,11.20
2022-10-21T01:26:56.600Z,11.25
2022-10-21T01:32:08.052Z,10.68
2022-10-21T01:37:19.304Z,11.18
2022-10-21T01:42:33.525Z,10.32
2022-10-21T01:47:42.603Z,9.80
2022-10-21T01:52:51.068Z,9.13
2022-10-21T01:58:03.051Z,10.00
2022-10-21T02:03:11.642Z,9.40
2022-10-21T02:08:15.520Z,9.15
2022-10-21T02:13:26.087Z,9.13
2022-10-21T02:18:31.139Z,8.55
2022-10-21T02:23:42.644Z,10.82
2022-10-21T02:28:46.796Z,11.25
2022-10-21T02:34:03.634Z,9.63
2022-10-21T02:39:12.879Z,12.20
2022-10-21T02:44:17.559Z,11.93
2022-10-21T02:49:22.568Z,11.52
2022-10-21T02:54:26.263Z,12.68
2022-10-21T02:59:29.976Z,11.63
2022-10-21T03:04:34.980Z,13.18
2022-10-21T03:09:38.641Z,11.82
2022-10-21T03:14:42.274Z,13.38
2022-10-21T03:19:47.372Z,13.62
2022-10-21T03:24:51.081Z,13.15
2022-10-21T03:29:54.795Z,11.68
2022-10-21T03:35:00.041Z,12.20
2022-10-21T03:40:05.463Z,13.35
2022-10-21T03:45:13.012Z,11.15
2022-10-21T03:50:18.282Z,10.18
2022-10-21T03:55:25.251Z,11.00
2022-10-21T04:00:31.551Z,9.70
2022-10-21T04:05:36.851Z,9.63
2022-10-21T04:10:40.513Z,10.38
2022-10-21T04:15:44.181Z,9.57
2022-10-21T04:20:49.160Z,8.90
2022-10-21T04:25:52.777Z,8.63
2022-10-21T04:30:56.607Z,7.45
2022-10-21T04:36:01.672Z,6.93
2022-10-21T04:41:05.465Z,7.62
2022-10-21T04:46:12.206Z,9.55
2022-10-21T04:51:17.273Z,6.53
2022-10-21T04:56:21.004Z,7.95
2022-10-21T05:01:24.754Z,6.57
2022-10-21T05:06:29.867Z,7.22
2022-10-21T05:11:33.639Z,7.50
2022-10-21T05:16:37.294Z,6.65
2022-10-21T05:21:42.311Z,6.60
2022-10-21T05:26:45.968Z,5.85
2022-10-21T05:31:49.585Z,5.55
2022-10-21T05:36:54.607Z,7.80
2022-10-21T05:41:58.325Z,6.53
2022-10-21T05:47:02.031Z,7.20
2022-10-21T05:52:07.186Z,7.68
2022-10-21T05:57:10.895Z,7.60
2022-10-21T06:02:14.626Z,6.82
2022-10-21T06:07:19.624Z,5.87
2022-10-21T06:12:23.384Z,6.85
2022-10-21T06:17:27.121Z,6.93
2022-10-21T06:22:32.084Z,6.87
2022-10-21T06:27:36.090Z,6.90
2022-10-21T06:32:40.079Z,6.82
2022-10-21T06:37:45.116Z,7.05
2022-10-21T06:42:50.815Z,6.75
2022-10-21T06:47:54.682Z,5.65
2022-10-21T06:52:59.722Z,5.70
2022-10-21T06:58:03.495Z,6.55
2022-10-21T07:03:07.143Z,7.43
2022-10-21T07:08:12.940Z,6.72
2022-10-21T07:13:16.758Z,7.00
2022-10-21T07:18:20.595Z,6.97
2022-10-21T07:23:25.749Z,6.95
2022-10-21T07:28:29.365Z,6.68
2022-10-21T07:33:33.200Z,7.72
2022-10-21T07:38:38.914Z,7.53
2022-10-21T07:43:42.685Z,8.10
2022-10-21T07:48:46.622Z,7.68
2022-10-21T07:53:54.072Z,7.22
2022-10-21T07:58:58.059Z,8.40
2022-10-21T08:04:01.779Z,8.68
2022-10-21T08:09:06.906Z,9.25
2022-10-21T08:14:11.473Z,8.85
2022-10-21T08:19:20.231Z,8.85
2022-10-21T08:24:25.599Z,8.13
2022-10-21T08:29:29.295Z,8.20
2022-10-21T08:34:33.137Z,7.43
2022-10-21T08:39:38.281Z,6.12
2022-10-21T08:44:51.486Z,6.72
2022-10-21T08:49:59.355Z,5.57
2022-10-21T08:55:07.505Z,2.22
2022-10-21T09:00:17.926Z,2.08
2022-10-21T09:05:57.934Z,2.60
2022-10-21T09:11:10.968Z,3.85
2022-10-21T09:16:20.309Z,3.15
2022-10-21T09:21:34.339Z,3.58
2022-10-21T09:26:42.347Z,3.40
2022-10-21T09:31:49.975Z,3.62
2022-10-21T09:37:00.485Z,4.12
2022-10-21T09:42:11.559Z,4.55
2022-10-21T09:47:24.328Z,5.15
2022-10-21T09:52:33.509Z,4.60
2022-10-21T09:57:46.941Z,5.20
2022-10-21T10:02:50.865Z,5.03
2022-10-21T10:07:54.564Z,5.00
2022-10-21T10:13:00.784Z,4.62
2022-10-21T10:18:04.717Z,4.82
2022-10-21T10:23:16.619Z,3.80
2022-10-21T10:28:25.849Z,4.00
2022-10-21T10:33:32.199Z,4.62
2022-10-21T10:38:38.819Z,4.87
2022-10-21T10:43:47.256Z,4.37
2022-10-21T10:48:52.745Z,3.55
2022-10-21T10:54:16.410Z,2.60
2022-10-21T10:59:29.808Z,2.42
2022-10-21T11:04:37.362Z,2.50
2022-10-21T11:09:41.084Z,2.05
2022-10-21T11:14:51.082Z,2.12
2022-10-21T11:20:02.376Z,2.62
2022-10-21T11:25:18.257Z,2.47
2022-10-21T11:30:29.064Z,1.83
2022-10-21T11:35:47.950Z,1.98
2022-10-21T11:40:55.659Z,2.70
2022-10-21T11:46:05.626Z,1.80
2022-10-21T11:51:23.080Z,2.05
2022-10-21T11:56:33.325Z,2.42
2022-10-21T12:01:48.661Z,2.60
2022-10-21T12:07:03.758Z,1.75
2022-10-21T12:12:12.919Z,1.60
2022-10-21T12:17:20.477Z,1.80
2022-10-21T12:22:26.449Z,1.60
2022-10-21T12:27:41.174Z,1.50
2022-10-21T12:32:58.463Z,1.12
2022-10-21T12:38:08.579Z,1.57
2022-10-21T12:43:27.175Z,0.98
2022-10-21T12:48:38.828Z,1.10
2022-10-21T12:53:48.145Z,1.00
2022-10-21T12:58:59.016Z,1.20
2022-10-21T13:04:04.370Z,0.90
2022-10-21T13:09:36.034Z,0.82
2022-10-21T13:14:44.888Z,1.02
2022-10-21T13:19:51.287Z,0.90
2022-10-21T13:24:55.098Z,0.70
2022-10-21T13:30:00.095Z,1.10
2022-10-21T13:35:29.505Z,1.20
2022-10-21T13:40:39.557Z,0.90
2022-10-21T13:45:49.502Z,1.25
2022-10-21T13:50:55.725Z,0.90
2022-10-21T13:56:01.849Z,0.80
2022-10-21T14:01:11.239Z,0.80
2022-10-21T14:06:25.892Z,0.88
2022-10-21T14:11:34.887Z,0.88
2022-10-21T14:16:44.138Z,0.82
2022-10-21T14:21:52.367Z,0.88
2022-10-21T14:26:56.966Z,0.80
2022-10-21T14:32:01.972Z,0.95
2022-10-21T14:37:20.975Z,0.73
2022-10-21T14:42:26.578Z,0.80
2022-10-21T14:47:30.390Z,1.02
2022-10-21T14:52:42.680Z,0.80
2022-10-21T14:57:49.391Z,0.73
2022-10-21T15:02:54.179Z,0.70
2022-10-21T15:08:25.465Z,0.82
2022-10-21T15:13:29.370Z,0.70
2022-10-21T15:18:40.818Z,1.00
2022-10-21T15:23:51.344Z,0.90
2022-10-21T15:28:55.976Z,0.93
2022-10-21T15:33:59.728Z,1.02
2022-10-21T15:39:06.916Z,0.90
2022-10-21T15:44:18.875Z,1.25
2022-10-21T15:49:24.031Z,1.08
2022-10-21T15:54:29.058Z,1.02
2022-10-21T15:59:34.810Z,1.10
2022-10-21T16:04:38.464Z,1.20
2022-10-21T16:09:43.550Z,1.30
2022-10-21T16:14:47.403Z,0.90
2022-10-21T16:19:51.055Z,1.10
2022-10-21T16:24:56.080Z,1.58
2022-10-21T16:29:59.708Z,1.12
2022-10-21T16:35:03.463Z,1.20
2022-10-21T16:40:17.356Z,1.60
2022-10-21T16:45:23.478Z,1.35
2022-10-21T16:50:34.242Z,1.50
2022-10-21T16:55:39.271Z,1.62
2022-10-21T17:00:44.670Z,1.15
2022-10-21T17:05:50.291Z,1.37
2022-10-21T17:10:55.368Z,2.15
2022-10-21T17:15:59.123Z,1.87
2022-10-21T17:21:02.810Z,1.62
2022-10-21T17:26:07.990Z,1.80
2022-10-21T17:31:16.460Z,2.00
2022-10-21T17:36:20.484Z,2.33
2022-10-21T17:41:25.535Z,2.17
2022-10-21T17:46:29.322Z,1.40
2022-10-21T17:51:33.136Z,1.40
2022-10-21T17:56:38.292Z,2.05
2022-10-21T18:01:42.162Z,1.60
2022-10-21T18:06:46.124Z,1.40
2022-10-21T18:11:51.234Z,2.10
2022-10-21T18:16:54.980Z,1.65
2022-10-21T18:21:58.654Z,1.70
2022-10-21T18:27:03.767Z,1.70
2022-10-21T18:32:11.381Z,1.90
2022-10-21T18:37:17.634Z,1.40
2022-10-21T18:42:22.731Z,1.60
2022-10-21T18:47:28.132Z,1.52
2022-10-21T18:52:31.822Z,1.87
2022-10-21T18:57:36.982Z,1.60
2022-10-21T19:02:40.972Z,1.73
2022-10-21T19:07:44.912Z,1.48
2022-10-21T19:12:51.128Z,1.50
2022-10-21T19:17:54.854Z,2.10
2022-10-21T19:22:58.709Z,2.00
2022-10-21T19:28:03.789Z,1.75
2022-10-21T19:33:07.491Z,1.52
2022-10-21T19:38:11.606Z,1.40
2022-10-21T19:43:25.847Z,1.67
2022-10-21T19:48:29.587Z,1.70
2022-10-21T19:53:34.091Z,1.92
2022-10-21T19:58:40.468Z,2.00
2022-10-21T20:03:46.010Z,1.87
2022-10-21T20:08:50.058Z,2.00
2022-10-21T20:13:55.483Z,1.87
2022-10-21T20:19:01.542Z,2.28
2022-10-21T20:24:06.221Z,2.22
2022-10-21T20:29:11.271Z,1.60
2022-10-21T20:34:15.058Z,1.58
2022-10-21T20:39:19.130Z,1.98
2022-10-21T20:44:24.266Z,1.95
2022-10-21T20:49:28.003Z,2.08
2022-10-21T20:54:33.344Z,1.80
2022-10-21T20:59:38.394Z,1.92
2022-10-21T21:04:42.090Z,2.20
2022-10-21T21:10:01.739Z,1.83
2022-10-21T21:15:09.312Z,1.80
2022-10-21T21:20:13.200Z,2.08
2022-10-21T21:25:16.954Z,1.90
2022-10-21T21:30:21.984Z,2.17
2022-10-21T21:35:25.623Z,2.20
2022-10-21T21:40:29.737Z,1.87
2022-10-21T21:45:34.770Z,2.40
2022-10-21T21:50:38.811Z,2.00
2022-10-21T21:55:43.113Z,1.92
2022-10-21T22:00:48.164Z,2.00
2022-10-21T22:05:51.984Z,2.33
2022-10-21T22:10:55.646Z,2.35
2022-10-21T22:16:00.847Z,2.20
2022-10-21T22:21:06.727Z,2.20
2022-10-21T22:26:11.081Z,2.47
2022-10-21T22:31:17.576Z,2.10
2022-10-21T22:36:21.629Z,2.50
2022-10-21T22:41:25.326Z,2.05
2022-10-21T22:46:34.654Z,2.35
2022-10-21T22:51:38.662Z,2.45
2022-10-21T22:56:42.342Z,2.65
2022-10-21T23:01:47.511Z,2.58
2022-10-21T23:06:51.620Z,2.87
2022-10-21T23:11:55.336Z,2.12
2022-10-21T23:17:00.340Z,2.65
2022-10-21T23:22:04.211Z,2.60
2022-10-21T23:27:07.862Z,3.12
2022-10-21T23:32:12.893Z,2.72
2022-10-21T23:37:16.691Z,3.00
2022-10-21T23:42:20.408Z,3.20
2022-10-21T23:47:25.403Z,3.20
2022-10-21T23:52:29.130Z,3.00
2022-10-21T23:57:32.903Z,3.47
